createdAt,value
2018-03-01T00:00:15.883Z,952.85
2018-03-01T00:01:15.859Z,952.82
2018-03-01T00:02:15.832Z,952.78
2018-03-01T00:03:15.807Z,952.77
2018-03-01T00:04:15.781Z,952.79
2018-03-01T00:05:15.761Z,952.78
2018-03-01T00:06:15.730Z,952.73
2018-03-01T00:07:15.704Z,952.74
2018-03-01T00:08:15.679Z,952.67
2018-03-01T00:09:15.652Z,952.7
2018-03-01T00:10:15.627Z,952.64
2018-03-01T00:11:15.601Z,952.7
2018-03-01T00:12:15.583Z,952.68
2018-03-01T00:13:15.549Z,952.67
2018-03-01T00:14:15.524Z,952.66
2018-03-01T00:15:15.498Z,952.66
2018-03-01T00:16:15.473Z,952.67
2018-03-01T00:17:15.448Z,952.7
2018-03-01T00:18:15.422Z,952.7
2018-03-01T00:19:15.396Z,952.7
2018-03-01T00:20:15.369Z,952.67
2018-03-01T00:21:15.344Z,952.74
2018-03-01T00:22:15.318Z,952.7
2018-03-01T00:23:15.293Z,952.63
2018-03-01T00:24:15.267Z,952.62
2018-03-01T00:25:15.243Z,952.63
2018-03-01T00:26:15.221Z,952.66
2018-03-01T00:27:15.193Z,952.69
2018-03-01T00:28:15.166Z,952.64
2018-03-01T00:29:15.141Z,952.63
2018-03-01T00:30:15.113Z,952.61
2018-03-01T00:31:15.112Z,952.62
2018-03-01T00:32:15.062Z,952.66
2018-03-01T00:33:15.036Z,952.62
2018-03-01T00:34:15.011Z,952.67
2018-03-01T00:35:14.984Z,952.68
2018-03-01T00:36:14.961Z,952.66
2018-03-01T00:37:14.934Z,952.68
2018-03-01T00:38:14.907Z,952.64
2018-03-01T00:39:14.881Z,952.69
2018-03-01T00:40:14.860Z,952.71
2018-03-01T00:41:14.829Z,952.71
2018-03-01T00:42:14.805Z,952.67
2018-03-01T00:43:14.779Z,952.71
2018-03-01T00:44:14.753Z,952.72
2018-03-01T00:45:14.728Z,952.66
2018-03-01T00:46:14.701Z,952.72
2018-03-01T00:47:14.677Z,952.67
2018-03-01T00:48:14.651Z,952.69
2018-03-01T00:49:14.625Z,952.74
2018-03-01T00:50:14.599Z,952.71
2018-03-01T00:51:14.573Z,952.69
2018-03-01T00:52:14.548Z,952.68
2018-03-01T00:53:14.521Z,952.71
2018-03-01T00:54:14.496Z,952.68
2018-03-01T00:55:14.474Z,952.66
2018-03-01T00:56:14.446Z,952.57
2018-03-01T00:57:14.420Z,952.56
2018-03-01T00:58:14.395Z,952.55
2018-03-01T00:59:14.368Z,952.56
2018-03-01T01:00:14.344Z,952.49
2018-03-01T01:01:14.318Z,952.47
2018-03-01T01:02:14.292Z,952.44
2018-03-01T01:03:14.268Z,952.45
2018-03-01T01:04:14.239Z,952.44
2018-03-01T01:05:14.215Z,952.44
2018-03-01T01:06:14.187Z,952.43
2018-03-01T01:07:14.166Z,952.44
2018-03-01T01:08:14.138Z,952.44
2018-03-01T01:09:14.110Z,952.45
2018-03-01T01:10:14.085Z,952.38
2018-03-01T01:11:14.059Z,952.39
2018-03-01T01:12:14.033Z,952.36
2018-03-01T01:13:14.008Z,952.28
2018-03-01T01:14:13.993Z,952.29
2018-03-01T01:15:13.960Z,952.31
2018-03-01T01:16:13.932Z,952.36
2018-03-01T01:17:13.906Z,952.37
2018-03-01T01:18:13.880Z,952.35
2018-03-01T01:19:13.857Z,952.32
2018-03-01T01:20:13.828Z,952.38
2018-03-01T01:21:13.803Z,952.3
2018-03-01T01:22:13.775Z,952.23
2018-03-01T01:23:13.750Z,952.22
2018-03-01T01:24:13.724Z,952.16
2018-03-01T01:25:13.704Z,952.16
2018-03-01T01:26:13.673Z,952.19
2018-03-01T01:27:13.647Z,952.18
2018-03-01T01:28:13.622Z,952.22
2018-03-01T01:29:13.595Z,952.22
2018-03-01T01:30:13.568Z,952.14
2018-03-01T01:31:13.593Z,952.14
2018-03-01T01:32:13.516Z,952.13
2018-03-01T01:33:13.490Z,952.13
2018-03-01T01:34:13.466Z,952.07
2018-03-01T01:35:13.442Z,952.11
2018-03-01T01:36:13.414Z,952.09
2018-03-01T01:37:13.387Z,952.02
2018-03-01T01:38:13.362Z,952.01
2018-03-01T01:39:13.337Z,951.97
2018-03-01T01:40:13.311Z,951.98
2018-03-01T01:41:13.284Z,951.96
2018-03-01T01:42:13.259Z,951.96
2018-03-01T01:43:13.238Z,951.98
2018-03-01T01:44:13.207Z,951.94
2018-03-01T01:45:13.181Z,951.99
2018-03-01T01:46:13.155Z,951.96
2018-03-01T01:47:13.132Z,951.95
2018-03-01T01:48:13.103Z,951.98
2018-03-01T01:49:13.076Z,951.9
2018-03-01T01:50:13.052Z,951.96
2018-03-01T01:51:13.027Z,951.93
2018-03-01T01:52:12.999Z,951.96
2018-03-01T01:53:12.973Z,952
2018-03-01T01:54:12.947Z,951.92
2018-03-01T01:55:12.920Z,952
2018-03-01T01:56:12.895Z,951.98
2018-03-01T01:57:12.869Z,952.06
2018-03-01T01:58:12.844Z,952
2018-03-01T01:59:12.816Z,952.04
2018-03-01T02:00:12.791Z,952.03
2018-03-01T02:01:12.765Z,952.06
2018-03-01T02:02:12.739Z,951.97
2018-03-01T02:03:12.712Z,952.01
2018-03-01T02:04:12.685Z,952.06
2018-03-01T02:05:12.658Z,952.02
2018-03-01T02:06:12.632Z,952.01
2018-03-01T02:07:12.606Z,952.06
2018-03-01T02:08:12.579Z,952.04
2018-03-01T02:09:12.555Z,952.01
2018-03-01T02:10:12.528Z,952.02
2018-03-01T02:11:12.505Z,951.95
2018-03-01T02:12:12.478Z,951.89
2018-03-01T02:13:12.452Z,951.82
2018-03-01T02:14:12.432Z,951.85
2018-03-01T02:15:12.399Z,951.86
2018-03-01T02:16:12.371Z,951.79
2018-03-01T02:17:12.346Z,951.77
2018-03-01T02:18:12.319Z,951.74
2018-03-01T02:19:12.293Z,951.72
2018-03-01T02:20:12.268Z,951.64
2018-03-01T02:21:12.241Z,951.61
2018-03-01T02:22:12.215Z,951.59
2018-03-01T02:23:12.189Z,951.57
2018-03-01T02:24:12.164Z,951.54
2018-03-01T02:25:12.136Z,951.49
2018-03-01T02:26:12.110Z,951.42
2018-03-01T02:27:12.085Z,951.48
2018-03-01T02:28:12.057Z,951.38
2018-03-01T02:29:12.031Z,951.38
2018-03-01T02:30:12.006Z,951.4
2018-03-01T02:31:11.984Z,951.38
2018-03-01T02:32:11.954Z,951.37
2018-03-01T02:33:11.933Z,951.33
2018-03-01T02:34:11.902Z,951.35
2018-03-01T02:35:11.874Z,951.26
2018-03-01T02:36:11.849Z,951.25
2018-03-01T02:37:11.830Z,951.19
2018-03-01T02:38:11.796Z,951.21
2018-03-01T02:39:11.770Z,951.2
2018-03-01T02:40:11.748Z,951.15
2018-03-01T02:41:11.718Z,951.12
2018-03-01T02:42:11.690Z,951.11
2018-03-01T02:43:11.664Z,951.09
2018-03-01T02:44:11.639Z,951.07
2018-03-01T02:45:11.613Z,951.04
2018-03-01T02:46:11.587Z,951.06
2018-03-01T02:47:11.559Z,951.03
2018-03-01T02:48:11.534Z,951.04
2018-03-01T02:49:11.509Z,951.04
2018-03-01T02:50:11.481Z,951.04
2018-03-01T02:51:11.456Z,951
2018-03-01T02:52:11.430Z,951.01
2018-03-01T02:53:11.403Z,950.98
2018-03-01T02:54:11.378Z,950.9
2018-03-01T02:55:11.351Z,950.91
2018-03-01T02:56:11.324Z,950.84
2018-03-01T02:57:11.299Z,950.9
2018-03-01T02:58:11.270Z,950.81
2018-03-01T02:59:11.244Z,950.83
2018-03-01T03:00:11.218Z,950.83
2018-03-01T03:01:11.192Z,950.83
2018-03-01T03:02:11.167Z,950.8
2018-03-01T03:03:11.140Z,950.82
2018-03-01T03:04:11.115Z,950.74
2018-03-01T03:05:11.086Z,950.73
2018-03-01T03:06:11.062Z,950.67
2018-03-01T03:07:11.036Z,950.66
2018-03-01T03:08:11.009Z,950.68
2018-03-01T03:09:10.983Z,950.62
2018-03-01T03:10:10.956Z,950.66
2018-03-01T03:11:10.930Z,950.62
2018-03-01T03:12:10.904Z,950.63
2018-03-01T03:13:10.878Z,950.65
2018-03-01T03:14:10.852Z,950.62
2018-03-01T03:15:10.831Z,950.61
2018-03-01T03:16:10.799Z,950.57
2018-03-01T03:17:10.774Z,950.6
2018-03-01T03:18:10.747Z,950.56
2018-03-01T03:19:10.719Z,950.55
2018-03-01T03:20:10.704Z,950.52
2018-03-01T03:21:10.669Z,950.52
2018-03-01T03:22:10.642Z,950.49
2018-03-01T03:23:10.614Z,950.51
2018-03-01T03:24:10.590Z,950.45
2018-03-01T03:25:10.564Z,950.42
2018-03-01T03:26:10.538Z,950.4
2018-03-01T03:27:10.510Z,950.37
2018-03-01T03:28:10.485Z,950.4
2018-03-01T03:29:10.459Z,950.39
2018-03-01T03:30:10.443Z,950.38
2018-03-01T03:31:10.408Z,950.38
2018-03-01T03:32:10.381Z,950.36
2018-03-01T03:33:10.355Z,950.36
2018-03-01T03:34:10.328Z,950.33
2018-03-01T03:35:10.301Z,950.34
2018-03-01T03:36:10.275Z,950.34
2018-03-01T03:37:10.250Z,950.39
2018-03-01T03:38:10.223Z,950.27
2018-03-01T03:39:10.198Z,950.24
2018-03-01T03:40:10.172Z,950.18
2018-03-01T03:41:10.145Z,950.23
2018-03-01T03:42:10.120Z,950.15
2018-03-01T03:43:10.093Z,950.11
2018-03-01T03:44:10.068Z,950.14
2018-03-01T03:45:10.041Z,950.12
2018-03-01T03:46:10.015Z,950.09
2018-03-01T03:47:09.989Z,950.14
2018-03-01T03:48:09.962Z,950.14
2018-03-01T03:49:09.937Z,950.14
2018-03-01T03:50:09.910Z,950.17
2018-03-01T03:51:09.884Z,950.18
2018-03-01T03:52:09.858Z,950.16
2018-03-01T03:53:09.832Z,950.23
2018-03-01T03:54:09.811Z,950.19
2018-03-01T03:55:09.780Z,950.19
2018-03-01T03:56:09.754Z,950.23
2018-03-01T03:57:09.727Z,950.26
2018-03-01T03:58:09.705Z,950.28
2018-03-01T03:59:09.675Z,950.32
2018-03-01T04:00:09.649Z,950.34
2018-03-01T04:01:09.622Z,950.32
2018-03-01T04:02:09.598Z,950.41
2018-03-01T04:03:09.571Z,950.42
2018-03-01T04:04:09.546Z,950.45
2018-03-01T04:05:09.525Z,950.39
2018-03-01T04:06:09.493Z,950.36
2018-03-01T04:07:09.467Z,950.41
2018-03-01T04:08:09.440Z,950.36
2018-03-01T04:09:09.414Z,950.42
2018-03-01T04:10:09.389Z,950.44
2018-03-01T04:11:09.361Z,950.39
2018-03-01T04:12:09.336Z,950.44
2018-03-01T04:13:09.310Z,950.43
2018-03-01T04:14:09.283Z,950.43
2018-03-01T04:15:09.264Z,950.41
2018-03-01T04:16:09.231Z,950.32
2018-03-01T04:17:09.204Z,950.29
2018-03-01T04:18:09.179Z,950.31
2018-03-01T04:19:09.153Z,950.3
2018-03-01T04:20:09.127Z,950.31
2018-03-01T04:21:09.101Z,950.35
2018-03-01T04:22:09.075Z,950.38
2018-03-01T04:23:09.051Z,950.44
2018-03-01T04:24:09.024Z,950.41
2018-03-01T04:25:08.997Z,950.48
2018-03-01T04:26:08.969Z,950.42
2018-03-01T04:27:08.945Z,950.44
2018-03-01T04:28:08.918Z,950.43
2018-03-01T04:29:08.892Z,950.41
2018-03-01T04:30:08.866Z,950.37
2018-03-01T04:31:08.840Z,950.42
2018-03-01T04:32:08.814Z,950.43
2018-03-01T04:33:08.789Z,950.42
2018-03-01T04:34:08.762Z,950.42
2018-03-01T04:35:08.736Z,950.45
2018-03-01T04:36:08.710Z,950.43
2018-03-01T04:37:08.681Z,950.45
2018-03-01T04:38:08.658Z,950.43
2018-03-01T04:39:08.631Z,950.45
2018-03-01T04:40:08.604Z,950.33
2018-03-01T04:41:08.578Z,950.32
2018-03-01T04:42:08.551Z,950.31
2018-03-01T04:43:08.526Z,950.29
2018-03-01T04:44:08.499Z,950.29
2018-03-01T04:45:08.474Z,950.21
2018-03-01T04:46:08.448Z,950.17
2018-03-01T04:47:08.420Z,950.08
2018-03-01T04:48:08.396Z,950.06
2018-03-01T04:49:08.369Z,950.05
2018-03-01T04:50:08.342Z,949.94
2018-03-01T04:51:08.316Z,949.96
2018-03-01T04:52:08.291Z,949.95
2018-03-01T04:53:08.265Z,949.88
2018-03-01T04:54:08.240Z,949.85
2018-03-01T04:55:08.212Z,949.85
2018-03-01T04:56:08.184Z,949.78
2018-03-01T04:57:08.160Z,949.79
2018-03-01T04:58:08.132Z,949.78
2018-03-01T04:59:08.106Z,949.77
2018-03-01T05:00:08.081Z,949.77
2018-03-01T05:01:08.055Z,949.76
2018-03-01T05:02:08.029Z,949.75
2018-03-01T05:03:08.002Z,949.74
2018-03-01T05:04:07.974Z,949.72
2018-03-01T05:05:07.949Z,949.7
2018-03-01T05:06:07.923Z,949.75
2018-03-01T05:07:07.897Z,949.83
2018-03-01T05:08:07.870Z,949.78
2018-03-01T05:09:07.844Z,949.82
2018-03-01T05:10:07.818Z,949.79
2018-03-01T05:11:07.791Z,949.81
2018-03-01T05:12:07.765Z,949.8
2018-03-01T05:13:07.739Z,949.77
2018-03-01T05:14:07.714Z,949.74
2018-03-01T05:15:07.688Z,949.78
2018-03-01T05:16:07.660Z,949.81
2018-03-01T05:17:07.635Z,949.82
2018-03-01T05:18:07.607Z,949.8
2018-03-01T05:19:07.582Z,949.76
2018-03-01T05:20:07.556Z,949.75
2018-03-01T05:21:07.529Z,949.7
2018-03-01T05:22:07.504Z,949.64
2018-03-01T05:23:07.478Z,949.65
2018-03-01T05:24:07.450Z,949.62
2018-03-01T05:25:07.425Z,949.64
2018-03-01T05:26:07.398Z,949.7
2018-03-01T05:27:07.371Z,949.67
2018-03-01T05:28:07.346Z,949.65
2018-03-01T05:29:07.322Z,949.69
2018-03-01T05:30:07.295Z,949.62
2018-03-01T05:31:07.268Z,949.61
2018-03-01T05:32:07.240Z,949.61
2018-03-01T05:33:07.215Z,949.59
2018-03-01T05:34:07.190Z,949.55
2018-03-01T05:35:07.165Z,949.58
2018-03-01T05:36:07.145Z,949.53
2018-03-01T05:37:07.110Z,949.52
2018-03-01T05:38:07.085Z,949.51
2018-03-01T05:39:07.058Z,949.46
2018-03-01T05:40:07.034Z,949.45
2018-03-01T05:41:07.007Z,949.48
2018-03-01T05:42:06.985Z,949.47
2018-03-01T05:43:06.953Z,949.5
2018-03-01T05:44:06.928Z,949.48
2018-03-01T05:45:06.905Z,949.47
2018-03-01T05:46:06.876Z,949.47
2018-03-01T05:47:06.850Z,949.44
2018-03-01T05:48:06.841Z,949.44
2018-03-01T05:49:06.797Z,949.48
2018-03-01T05:50:06.773Z,949.52
2018-03-01T05:51:06.745Z,949.47
2018-03-01T05:52:06.718Z,949.47
2018-03-01T05:53:06.692Z,949.52
2018-03-01T05:54:06.666Z,949.57
2018-03-01T05:55:06.640Z,949.51
2018-03-01T05:56:06.614Z,949.55
2018-03-01T05:57:06.587Z,949.5
2018-03-01T05:58:06.562Z,949.53
2018-03-01T05:59:06.537Z,949.55
2018-03-01T06:00:06.511Z,949.53
2018-03-01T06:01:06.484Z,949.51
2018-03-01T06:02:06.458Z,949.44
2018-03-01T06:03:06.435Z,949.4
2018-03-01T06:04:06.405Z,949.32
2018-03-01T06:05:06.379Z,949.36
2018-03-01T06:06:06.354Z,949.34
2018-03-01T06:07:06.326Z,949.28
2018-03-01T06:08:06.303Z,949.26
2018-03-01T06:09:06.274Z,949.28
2018-03-01T06:10:06.248Z,949.15
2018-03-01T06:11:06.225Z,949.08
2018-03-01T06:12:06.197Z,949.06
2018-03-01T06:13:06.172Z,949.03
2018-03-01T06:14:06.149Z,949.02
2018-03-01T06:15:06.124Z,948.96
2018-03-01T06:16:06.093Z,948.96
2018-03-01T06:17:06.064Z,948.95
2018-03-01T06:18:06.039Z,948.95
2018-03-01T06:19:06.012Z,948.94
2018-03-01T06:20:05.985Z,948.91
2018-03-01T06:21:05.958Z,948.93
2018-03-01T06:22:05.931Z,948.92
2018-03-01T06:23:05.906Z,948.89
2018-03-01T06:24:05.880Z,948.98
2018-03-01T06:25:05.859Z,949.02
2018-03-01T06:26:05.830Z,948.97
2018-03-01T06:27:05.802Z,948.96
2018-03-01T06:28:05.775Z,948.95
2018-03-01T06:29:05.748Z,948.97
2018-03-01T06:30:05.722Z,949.01
2018-03-01T06:31:05.695Z,949.02
2018-03-01T06:32:05.670Z,949.02
2018-03-01T06:33:05.641Z,949.01
2018-03-01T06:34:05.617Z,949.06
2018-03-01T06:35:05.593Z,949.1
2018-03-01T06:36:05.564Z,949.03
2018-03-01T06:37:05.584Z,949.03
2018-03-01T06:38:05.513Z,949.01
2018-03-01T06:39:05.485Z,948.99
2018-03-01T06:40:05.461Z,948.96
2018-03-01T06:41:05.433Z,948.99
2018-03-01T06:42:05.407Z,948.99
2018-03-01T06:43:05.386Z,948.87
2018-03-01T06:44:05.355Z,948.9
2018-03-01T06:45:05.336Z,948.9
2018-03-01T06:46:05.302Z,948.91
2018-03-01T06:47:05.276Z,948.88
2018-03-01T06:48:05.250Z,948.9
2018-03-01T06:49:05.283Z,948.92
2018-03-01T06:50:05.198Z,948.94
2018-03-01T06:51:05.177Z,948.98
2018-03-01T06:52:05.145Z,948.97
2018-03-01T06:53:05.129Z,948.96
2018-03-01T06:54:05.094Z,948.92
2018-03-01T06:55:05.067Z,948.98
2018-03-01T06:56:05.047Z,948.97
2018-03-01T06:57:05.014Z,948.87
2018-03-01T06:58:04.988Z,948.89
2018-03-01T06:59:04.988Z,948.89
2018-03-01T07:00:04.936Z,948.89
2018-03-01T07:01:04.910Z,948.92
2018-03-01T07:02:04.883Z,948.95
2018-03-01T07:03:04.859Z,948.94
2018-03-01T07:04:04.832Z,948.9
2018-03-01T07:05:04.808Z,948.89
2018-03-01T07:06:04.778Z,948.8
2018-03-01T07:07:04.754Z,948.75
2018-03-01T07:08:04.728Z,948.74
2018-03-01T07:09:04.702Z,948.75
2018-03-01T07:10:04.675Z,948.74
2018-03-01T07:11:04.664Z,948.77
2018-03-01T07:12:04.625Z,948.72
2018-03-01T07:13:04.597Z,948.7
2018-03-01T07:14:04.572Z,948.7
2018-03-01T07:15:04.546Z,948.71
2018-03-01T07:16:04.520Z,948.72
2018-03-01T07:17:04.494Z,948.73
2018-03-01T07:18:04.467Z,948.73
2018-03-01T07:19:04.443Z,948.74
2018-03-01T07:20:04.417Z,948.71
2018-03-01T07:21:04.390Z,948.71
2018-03-01T07:22:04.364Z,948.74
2018-03-01T07:23:04.338Z,948.69
2018-03-01T07:24:04.312Z,948.7
2018-03-01T07:25:04.287Z,948.74
2018-03-01T07:26:04.261Z,948.77
2018-03-01T07:27:04.235Z,948.78
2018-03-01T07:28:04.209Z,948.8
2018-03-01T07:29:04.184Z,948.78
2018-03-01T07:30:04.159Z,948.8
2018-03-01T07:31:04.133Z,948.76
2018-03-01T07:32:04.108Z,948.79
2018-03-01T07:33:04.165Z,948.81
2018-03-01T07:34:04.056Z,948.85
2018-03-01T07:35:04.029Z,948.84
2018-03-01T07:36:04.005Z,948.86
2018-03-01T07:37:04.022Z,948.9
2018-03-01T07:38:03.952Z,948.9
2018-03-01T07:39:03.959Z,948.89
2018-03-01T07:40:03.902Z,948.88
2018-03-01T07:41:03.876Z,948.87
2018-03-01T07:42:03.851Z,948.81
2018-03-01T07:43:03.826Z,948.86
2018-03-01T07:44:03.800Z,948.83
2018-03-01T07:45:03.775Z,948.85
2018-03-01T07:46:03.751Z,948.89
2018-03-01T07:47:03.724Z,948.88
2018-03-01T07:48:03.700Z,948.85
2018-03-01T07:49:03.674Z,948.85
2018-03-01T07:50:03.647Z,948.87
2018-03-01T07:51:03.655Z,948.84
2018-03-01T07:52:03.596Z,948.87
2018-03-01T07:53:03.573Z,948.82
2018-03-01T07:54:03.546Z,948.82
2018-03-01T07:55:03.521Z,948.83
2018-03-01T07:56:03.496Z,948.85
2018-03-01T07:57:03.470Z,948.83
2018-03-01T07:58:03.446Z,948.82
2018-03-01T07:59:03.419Z,948.78
2018-03-01T08:00:03.395Z,948.76
2018-03-01T08:01:03.370Z,948.69
2018-03-01T08:02:03.345Z,948.7
2018-03-01T08:03:03.320Z,948.68
2018-03-01T08:04:03.300Z,948.68
2018-03-01T08:05:03.269Z,948.64
2018-03-01T08:06:03.243Z,948.63
2018-03-01T08:07:03.219Z,948.6
2018-03-01T08:08:03.194Z,948.63
2018-03-01T08:09:03.168Z,948.58
2018-03-01T08:10:03.144Z,948.53
2018-03-01T08:11:03.119Z,948.5
2018-03-01T08:12:03.098Z,948.45
2018-03-01T08:13:03.068Z,948.42
2018-03-01T08:14:03.046Z,948.42
2018-03-01T08:15:03.021Z,948.39
2018-03-01T08:16:02.995Z,948.28
2018-03-01T08:17:02.970Z,948.36
2018-03-01T08:18:02.945Z,948.28
2018-03-01T08:19:02.920Z,948.31
2018-03-01T08:20:02.894Z,948.23
2018-03-01T08:21:02.872Z,948.2
2018-03-01T08:22:02.846Z,948.2
2018-03-01T08:23:02.821Z,948.11
2018-03-01T08:24:02.796Z,948.18
2018-03-01T08:25:02.770Z,948.19
2018-03-01T08:26:02.747Z,948.16
2018-03-01T08:27:02.722Z,948.1
2018-03-01T08:28:02.697Z,948.15
2018-03-01T08:29:02.674Z,948.19
2018-03-01T08:30:02.653Z,948.15
2018-03-01T08:31:02.623Z,948.12
2018-03-01T08:32:02.601Z,948.07
2018-03-01T08:33:02.575Z,948.04
2018-03-01T08:34:02.550Z,948.07
2018-03-01T08:35:02.527Z,947.95
2018-03-01T08:36:02.502Z,947.94
2018-03-01T08:37:02.476Z,947.99
2018-03-01T08:38:02.451Z,947.89
2018-03-01T08:39:02.427Z,947.95
2018-03-01T08:40:02.407Z,947.94
2018-03-01T08:41:02.379Z,947.86
2018-03-01T08:42:02.356Z,947.86
2018-03-01T08:43:02.331Z,947.87
2018-03-01T08:44:02.308Z,947.86
2018-03-01T08:45:02.286Z,947.82
2018-03-01T08:46:02.258Z,947.84
2018-03-01T08:47:02.236Z,947.81
2018-03-01T08:48:02.211Z,947.85
2018-03-01T08:49:02.186Z,947.8
2018-03-01T08:50:02.165Z,947.75
2018-03-01T08:51:02.138Z,947.78
2018-03-01T08:52:02.117Z,947.82
2018-03-01T08:53:02.090Z,947.76
2018-03-01T08:54:02.066Z,947.76
2018-03-01T08:55:02.056Z,947.74
2018-03-01T08:56:02.019Z,947.76
2018-03-01T08:57:01.997Z,947.71
2018-03-01T08:58:01.972Z,947.67
2018-03-01T08:59:01.949Z,947.65
2018-03-01T09:00:01.925Z,947.7
2018-03-01T09:01:01.902Z,947.69
2018-03-01T09:02:01.880Z,947.74
2018-03-01T09:03:01.855Z,947.73
2018-03-01T09:04:01.830Z,947.79
2018-03-01T09:05:01.810Z,947.85
2018-03-01T09:06:01.791Z,947.87
2018-03-01T09:07:01.762Z,947.8
2018-03-01T09:08:01.740Z,947.79
2018-03-01T09:09:01.716Z,947.8
2018-03-01T09:10:01.693Z,947.76
2018-03-01T09:11:01.671Z,947.78
2018-03-01T09:12:01.647Z,947.77
2018-03-01T09:13:01.623Z,947.77
2018-03-01T09:14:01.600Z,947.71
2018-03-01T09:15:01.578Z,947.67
2018-03-01T09:16:01.555Z,947.61
2018-03-01T09:17:01.532Z,947.57
2018-03-01T09:18:01.513Z,947.59
2018-03-01T09:19:01.516Z,947.55
2018-03-01T09:20:01.463Z,947.49
2018-03-01T09:21:01.439Z,947.45
2018-03-01T09:22:01.415Z,947.41
2018-03-01T09:23:01.394Z,947.39
2018-03-01T09:24:01.370Z,947.41
2018-03-01T09:25:01.347Z,947.41
2018-03-01T09:26:01.325Z,947.35
2018-03-01T09:27:01.303Z,947.36
2018-03-01T09:28:01.278Z,947.41
2018-03-01T09:29:01.257Z,947.3
2018-03-01T09:30:01.234Z,947.29
2018-03-01T09:31:01.212Z,947.31
2018-03-01T09:32:01.187Z,947.25
2018-03-01T09:33:01.166Z,947.24
2018-03-01T09:34:01.143Z,947.21
2018-03-01T09:35:01.121Z,947.2
2018-03-01T09:36:01.098Z,947.18
2018-03-01T09:37:01.075Z,947.17
2018-03-01T09:38:01.056Z,947.09
2018-03-01T09:39:01.030Z,947.1
2018-03-01T09:40:01.007Z,947.04
2018-03-01T09:41:00.986Z,947.04
2018-03-01T09:42:00.965Z,946.95
2018-03-01T09:43:00.941Z,946.96
2018-03-01T09:44:00.921Z,946.92
2018-03-01T09:45:00.897Z,946.93
2018-03-01T09:46:00.876Z,947.01
2018-03-01T09:47:00.853Z,946.97
2018-03-01T09:48:00.833Z,946.97
2018-03-01T09:49:00.808Z,946.99
2018-03-01T09:50:00.786Z,947.03
2018-03-01T09:51:00.764Z,946.96
2018-03-01T09:52:00.743Z,946.97
2018-03-01T09:53:00.721Z,946.96
2018-03-01T09:54:00.698Z,947.01
2018-03-01T09:55:00.676Z,946.95
2018-03-01T09:56:00.655Z,947.01
2018-03-01T09:57:00.634Z,947.03
2018-03-01T09:58:00.651Z,946.97
2018-03-01T09:59:00.589Z,947
2018-03-01T10:00:00.566Z,946.92
2018-03-01T10:01:00.543Z,946.89
2018-03-01T10:02:00.526Z,946.92
2018-03-01T10:03:00.502Z,946.93
2018-03-01T10:04:00.480Z,946.95
2018-03-01T10:05:00.456Z,946.91
2018-03-01T10:06:00.437Z,946.91
2018-03-01T10:07:00.426Z,946.89
2018-03-01T10:08:00.394Z,946.88
2018-03-01T10:09:00.371Z,946.86
2018-03-01T10:10:00.350Z,946.83
2018-03-01T10:11:00.328Z,946.83
2018-03-01T10:12:00.307Z,946.78
2018-03-01T10:13:00.285Z,946.74
2018-03-01T10:14:00.264Z,946.68
2018-03-01T10:15:00.244Z,946.66
2018-03-01T10:16:00.221Z,946.74
2018-03-01T10:17:00.230Z,946.67
2018-03-01T10:18:00.241Z,946.66
2018-03-01T10:19:00.158Z,946.69
2018-03-01T10:20:00.140Z,946.57
2018-03-01T10:21:00.116Z,946.6
2018-03-01T10:22:00.097Z,946.62
2018-03-01T10:23:00.072Z,946.53
2018-03-01T10:24:00.055Z,946.55
2018-03-01T10:25:00.049Z,946.6
2018-03-01T10:26:00.010Z,946.55
2018-03-01T10:26:59.986Z,946.53
2018-03-01T10:27:59.965Z,946.51
2018-03-01T10:28:59.944Z,946.47
2018-03-01T10:29:59.924Z,946.46
2018-03-01T10:30:59.902Z,946.47
2018-03-01T10:31:59.881Z,946.45
2018-03-01T10:32:59.859Z,946.45
2018-03-01T10:33:59.838Z,946.49
2018-03-01T10:34:59.817Z,946.46
2018-03-01T10:35:59.796Z,946.46
2018-03-01T10:36:59.775Z,946.39
2018-03-01T10:37:59.753Z,946.4
2018-03-01T10:38:59.732Z,946.46
2018-03-01T10:39:59.710Z,946.45
2018-03-01T10:40:59.706Z,946.4
2018-03-01T10:41:59.668Z,946.47
2018-03-01T10:42:59.648Z,946.46
2018-03-01T10:43:59.627Z,946.39
2018-03-01T10:44:59.605Z,946.42
2018-03-01T10:45:59.583Z,946.39
2018-03-01T10:46:59.563Z,946.4
2018-03-01T10:47:59.542Z,946.39
2018-03-01T10:48:59.520Z,946.34
2018-03-01T10:49:59.497Z,946.33
2018-03-01T10:50:59.476Z,946.38
2018-03-01T10:51:59.455Z,946.24
2018-03-01T10:52:59.434Z,946.25
2018-03-01T10:53:59.413Z,946.34
2018-03-01T10:54:59.392Z,946.29
2018-03-01T10:55:59.370Z,946.29
2018-03-01T10:56:59.347Z,946.28
2018-03-01T10:57:59.326Z,946.27
2018-03-01T10:58:59.309Z,946.27
2018-03-01T10:59:59.285Z,946.23
2018-03-01T11:00:59.263Z,946.19
2018-03-01T11:01:59.242Z,946.24
2018-03-01T11:02:59.220Z,946.27
2018-03-01T11:03:59.198Z,946.24
2018-03-01T11:04:59.209Z,946.27
2018-03-01T11:05:59.156Z,946.25
2018-03-01T11:06:59.139Z,946.22
2018-03-01T11:07:59.113Z,946.29
2018-03-01T11:08:59.091Z,946.23
2018-03-01T11:09:59.071Z,946.15
2018-03-01T11:10:59.048Z,946.16
2018-03-01T11:11:59.030Z,946.09
2018-03-01T11:12:59.008Z,946.12
2018-03-01T11:13:58.984Z,946.14
2018-03-01T11:14:58.964Z,946.12
2018-03-01T11:15:58.942Z,946.16
2018-03-01T11:16:58.921Z,946.15
2018-03-01T11:17:58.903Z,946.16
2018-03-01T11:18:58.878Z,946.18
2018-03-01T11:19:58.861Z,946.19
2018-03-01T11:20:58.836Z,946.18
2018-03-01T11:21:58.820Z,946.17
2018-03-01T11:22:58.794Z,946.23
2018-03-01T11:23:58.839Z,946.13
2018-03-01T11:24:58.750Z,946.09
2018-03-01T11:25:58.728Z,946.09
2018-03-01T11:26:58.708Z,946
2018-03-01T11:27:58.688Z,945.98
2018-03-01T11:28:58.665Z,946.05
2018-03-01T11:29:58.645Z,946.01
2018-03-01T11:30:58.623Z,946.02
2018-03-01T11:31:58.603Z,945.99
2018-03-01T11:32:58.579Z,945.99
2018-03-01T11:33:58.558Z,945.98
2018-03-01T11:34:58.538Z,945.97
2018-03-01T11:35:58.516Z,945.92
2018-03-01T11:36:58.496Z,945.96
2018-03-01T11:37:58.475Z,945.92
2018-03-01T11:38:58.453Z,945.9
2018-03-01T11:39:58.432Z,945.82
2018-03-01T11:40:58.411Z,945.89
2018-03-01T11:41:58.389Z,945.85
2018-03-01T11:42:58.368Z,945.78
2018-03-01T11:43:58.349Z,945.82
2018-03-01T11:44:58.326Z,945.8
2018-03-01T11:45:58.306Z,945.77
2018-03-01T11:46:58.283Z,945.72
2018-03-01T11:47:58.263Z,945.72
2018-03-01T11:48:58.244Z,945.7
2018-03-01T11:49:58.222Z,945.72
2018-03-01T11:50:58.200Z,945.69
2018-03-01T11:51:58.179Z,945.65
2018-03-01T11:52:58.159Z,945.68
2018-03-01T11:53:58.137Z,945.64
2018-03-01T11:54:58.116Z,945.65
2018-03-01T11:55:58.095Z,945.62
2018-03-01T11:56:58.075Z,945.62
2018-03-01T11:57:58.052Z,945.61
2018-03-01T11:58:58.033Z,945.62
2018-03-01T11:59:58.012Z,945.64
2018-03-01T12:00:57.992Z,945.55
2018-03-01T12:01:57.969Z,945.57
2018-03-01T12:02:57.948Z,945.52
2018-03-01T12:03:57.951Z,945.48
2018-03-01T12:04:57.908Z,945.46
2018-03-01T12:05:57.885Z,945.42
2018-03-01T12:06:57.865Z,945.43
2018-03-01T12:07:57.844Z,945.41
2018-03-01T12:08:57.824Z,945.38
2018-03-01T12:09:57.802Z,945.44
2018-03-01T12:10:57.783Z,945.45
2018-03-01T12:11:57.760Z,945.48
2018-03-01T12:12:57.740Z,945.36
2018-03-01T12:13:57.719Z,945.3
2018-03-01T12:14:57.701Z,945.37
2018-03-01T12:15:57.677Z,945.35
2018-03-01T12:16:57.657Z,945.39
2018-03-01T12:17:57.637Z,945.36
2018-03-01T12:18:57.618Z,945.32
2018-03-01T12:19:57.594Z,945.27
2018-03-01T12:20:57.575Z,945.21
2018-03-01T12:21:57.555Z,945.22
2018-03-01T12:22:57.542Z,945.22
2018-03-01T12:23:57.512Z,945.28
2018-03-01T12:24:57.491Z,945.24
2018-03-01T12:25:57.471Z,945.17
2018-03-01T12:26:57.449Z,945.2
2018-03-01T12:27:57.429Z,945.28
2018-03-01T12:28:57.408Z,945.31
2018-03-01T12:29:57.388Z,945.26